الصفحة الرئيسية
METAR-TAF:

METAR-TAF

مطار :

Nioro du Sahel, مالي

دائرة عرض: 15-14N, خط طول: 009-21W, ارتفاع: 235 متر

مراقبة الطقس الحالي

تاريخ ووقت الإصدار 28 دقيقة قبل الساعة 12:00UTC
ريح 10 عقدة من الغرب
درجة الحرارة 32°درجة مئوية
الرطوبة 67%
ضغط 1011 hPa
الرؤية 10 كم أو أكثر
غيوم متفرقة على ارتفاع 3000 قدم

METAR: GANR 201200Z 28010KT 9999 SCT030 32/25 Q1011

زمن: 12:28 (12:28 UTC)


TAF: مفقودة

أرصاد الطقس والتوقعات من أكثر من 4000 مطار (تقارير الطقس للمطار METAR والتنبؤ بالطقس بالمطارTAF).

المحطات المتاحة هي النقط الصفراء والحمراء على الخريطة.

حرك المؤشر فوق النقطة لمعرفة اسم المحطة.

ثم انقر لمعرفة أرصاد وتوقعات الطقس.

لتغيير الخارطة: اضغط على الأزرار الخضراء مع رمز الصليب الأسود للتكبير. على الزر الأخضر مع شرطة للتصغير، أو على الأسهم الخضراء للخرائط المجاورة.


METAR-TAF: